Time;durP1;ratioP1;P1;durP2;ratioP2;P2;SDS_P1;SDS_P2;PMS_P1;PMS_P2;Temp;Humidity;BMP_temperature;BMP_pressure;BME280_temperature;BME280_humidity;BME280_pressure;Samples;Min_cycle;Max_cycle;Signal;HPM_P1;HPM_P2
2023/12/10 00:02:12;;;;;;;11.40;5.63;;;;;;;;;;5019319;28;20589;-69
2023/12/10 00:04:58;;;;;;;15.77;6.93;;;;;;;;;;5031008;28;20029;-69
2023/12/10 00:07:43;;;;;;;16.75;6.95;;;;;;;;;;5031576;28;20484;-68
2023/12/10 00:10:29;;;;;;;13.38;6.50;;;;;;;;;;5031974;28;20017;-68
2023/12/10 00:13:15;;;;;;;13.38;6.43;;;;;;;;;;5031757;28;20022;-69
2023/12/10 00:16:00;;;;;;;15.20;6.20;;;;;;;;;;5031870;28;20479;-69
2023/12/10 00:18:46;;;;;;;12.18;6.25;;;;;;;;;;5030820;28;20035;-69
2023/12/10 00:21:32;;;;;;;10.20;6.05;;;;;;;;;;5031463;28;20402;-69
2023/12/10 00:24:17;;;;;;;11.80;6.05;;;;;;;;;;5032478;28;20026;-69
2023/12/10 00:27:03;;;;;;;14.25;7.15;;;;;;;;;;5031820;28;20143;-69
2023/12/10 00:29:49;;;;;;;11.27;6.10;;;;;;;;;;5026797;28;20084;-69
2023/12/10 00:32:34;;;;;;;14.70;5.68;;;;;;;;;;5020197;28;20474;-69
2023/12/10 00:35:20;;;;;;;10.93;5.28;;;;;;;;;;5018276;28;20021;-69
2023/12/10 00:38:07;;;;;;;9.80;6.20;;;;;;;;;;5014950;28;20120;-69
2023/12/10 00:40:52;;;;;;;10.63;5.47;;;;;;;;;;5016310;28;20026;-69
2023/12/10 00:43:41;;;;;;;11.18;5.85;;;;;;;;;;5021407;28;20503;-69
2023/12/10 00:46:27;;;;;;;12.48;5.50;;;;;;;;;;5015458;28;20034;-69
2023/12/10 00:49:13;;;;;;;12.60;5.53;;;;;;;;;;5027506;28;20036;-69
2023/12/10 00:51:59;;;;;;;11.18;5.45;;;;;;;;;;5034393;28;20109;-69
2023/12/10 00:54:44;;;;;;;10.95;5.07;;;;;;;;;;5024459;28;20030;-68
2023/12/10 00:57:30;;;;;;;12.52;6.07;;;;;;;;;;5032941;28;20033;-69
2023/12/10 01:00:17;;;;;;;8.63;5.50;;;;;;;;;;5015334;28;20040;-69
2023/12/10 01:03:05;;;;;;;9.57;5.40;;;;;;;;;;5000698;28;20037;-69
2023/12/10 01:05:51;;;;;;;9.63;4.75;;;;;;;;;;5034342;28;20030;-69
2023/12/10 01:08:37;;;;;;;9.57;5.00;;;;;;;;;;5034288;28;20018;-69
2023/12/10 01:11:22;;;;;;;9.85;5.95;;;;;;;;;;5034530;28;20487;-69
2023/12/10 01:14:08;;;;;;;10.32;4.85;;;;;;;;;;5035445;28;20036;-69
2023/12/10 01:16:54;;;;;;;14.07;6.05;;;;;;;;;;5035744;28;20025;-69
2023/12/10 01:19:39;;;;;;;9.60;5.40;;;;;;;;;;5018732;28;20402;-69
2023/12/10 01:22:25;;;;;;;10.13;5.40;;;;;;;;;;5034800;28;20018;-69
2023/12/10 01:25:13;;;;;;;11.05;6.32;;;;;;;;;;5035421;28;20029;-69
2023/12/10 01:27:59;;;;;;;16.00;5.78;;;;;;;;;;5033832;28;20025;-69
2023/12/10 01:30:44;;;;;;;9.35;5.95;;;;;;;;;;5035278;28;20044;-68
2023/12/10 01:33:30;;;;;;;10.55;5.45;;;;;;;;;;5032328;28;20579;-68
2023/12/10 01:36:23;;;;;;;9.30;5.63;;;;;;;;;;5024817;28;20118;-69
2023/12/10 01:39:08;;;;;;;13.75;4.90;;;;;;;;;;5015024;28;20030;-69
2023/12/10 01:41:54;;;;;;;9.90;5.30;;;;;;;;;;5016842;28;20109;-69
2023/12/10 01:44:40;;;;;;;8.27;4.80;;;;;;;;;;5016030;28;20109;-69
2023/12/10 01:47:26;;;;;;;10.63;5.63;;;;;;;;;;5011793;28;20438;-69
2023/12/10 01:50:13;;;;;;;10.13;5.20;;;;;;;;;;5021252;28;20013;-69
2023/12/10 01:52:58;;;;;;;9.13;5.68;;;;;;;;;;5017572;28;20033;-69
2023/12/10 01:55:44;;;;;;;10.27;5.20;;;;;;;;;;5026122;28;20037;-69
2023/12/10 01:58:30;;;;;;;8.23;5.07;;;;;;;;;;5033991;28;20049;-69
2023/12/10 02:01:19;;;;;;;11.07;5.57;;;;;;;;;;5033745;28;20017;-68
2023/12/10 02:04:05;;;;;;;8.25;5.07;;;;;;;;;;5032622;28;20022;-68
2023/12/10 02:06:51;;;;;;;13.18;5.60;;;;;;;;;;5018285;28;20029;-69
2023/12/10 02:09:37;;;;;;;8.07;5.38;;;;;;;;;;5016093;28;20030;-69
2023/12/10 02:12:25;;;;;;;10.95;4.78;;;;;;;;;;5013732;28;20029;-68
2023/12/10 02:15:19;;;;;;;9.02;5.00;;;;;;;;;;5018645;28;20105;-69
2023/12/10 02:18:04;;;;;;;10.10;4.32;;;;;;;;;;5013863;28;20029;-69
2023/12/10 02:20:50;;;;;;;10.75;5.38;;;;;;;;;;5016138;28;20087;-68
2023/12/10 02:23:47;;;;;;;11.50;6.03;;;;;;;;;;5013920;28;20080;-69
2023/12/10 02:26:33;;;;;;;9.40;5.68;;;;;;;;;;4999058;28;20025;-69
2023/12/10 02:29:19;;;;;;;11.57;5.55;;;;;;;;;;5004802;28;20018;-69
2023/12/10 02:32:05;;;;;;;8.25;4.07;;;;;;;;;;5012975;28;20105;-69
2023/12/10 02:34:51;;;;;;;8.00;5.07;;;;;;;;;;4999332;28;20099;-69
2023/12/10 02:37:36;;;;;;;9.32;5.40;;;;;;;;;;5013525;28;20033;-69
2023/12/10 02:40:22;;;;;;;7.00;4.28;;;;;;;;;;5018139;28;20038;-69
2023/12/10 02:43:08;;;;;;;8.68;4.75;;;;;;;;;;5013291;28;20022;-68
2023/12/10 02:45:54;;;;;;;7.47;4.25;;;;;;;;;;5012499;28;20017;-69
2023/12/10 02:48:39;;;;;;;9.25;4.55;;;;;;;;;;5013468;28;20054;-69
2023/12/10 02:51:25;;;;;;;8.50;4.32;;;;;;;;;;5012913;28;20022;-69
2023/12/10 02:54:11;;;;;;;8.50;4.97;;;;;;;;;;5013348;28;20483;-68
2023/12/10 02:56:56;;;;;;;8.50;4.45;;;;;;;;;;5013437;28;20398;-69
2023/12/10 02:59:42;;;;;;;7.75;4.65;;;;;;;;;;5013569;28;20028;-69
2023/12/10 03:02:28;;;;;;;9.25;5.07;;;;;;;;;;5012911;28;20114;-69
2023/12/10 03:05:13;;;;;;;7.03;4.47;;;;;;;;;;5013517;28;20061;-69
2023/12/10 03:07:59;;;;;;;8.98;5.35;;;;;;;;;;5013262;28;20033;-69
2023/12/10 03:10:45;;;;;;;9.10;4.88;;;;;;;;;;5012589;28;20105;-69
2023/12/10 03:13:30;;;;;;;7.35;4.50;;;;;;;;;;5013838;28;20483;-69
2023/12/10 03:16:16;;;;;;;10.70;5.63;;;;;;;;;;5013185;28;20164;-69
2023/12/10 03:19:01;;;;;;;10.18;5.70;;;;;;;;;;5012995;28;20172;-69
2023/12/10 03:21:47;;;;;;;9.73;6.10;;;;;;;;;;5013115;28;20057;-69
2023/12/10 03:24:33;;;;;;;10.30;5.75;;;;;;;;;;5013065;28;20050;-69
2023/12/10 03:27:21;;;;;;;15.43;5.38;;;;;;;;;;4999484;28;20105;-69
2023/12/10 03:30:07;;;;;;;11.90;5.88;;;;;;;;;;5012810;28;20025;-69
2023/12/10 03:32:53;;;;;;;10.18;6.22;;;;;;;;;;5013522;28;20026;-69
2023/12/10 03:35:38;;;;;;;13.93;7.07;;;;;;;;;;5013286;28;20018;-69
2023/12/10 03:38:24;;;;;;;12.10;7.68;;;;;;;;;;5013763;28;20549;-69
2023/12/10 03:41:09;;;;;;;13.63;6.68;;;;;;;;;;5012596;28;20026;-69
2023/12/10 03:43:55;;;;;;;15.55;7.15;;;;;;;;;;5013500;28;20033;-69
2023/12/10 03:46:41;;;;;;;13.90;7.03;;;;;;;;;;5013138;28;20029;-69
2023/12/10 03:49:28;;;;;;;14.55;6.97;;;;;;;;;;4997763;28;20398;-69
2023/12/10 03:52:14;;;;;;;14.77;7.22;;;;;;;;;;4997805;28;20029;-69
2023/12/10 03:54:59;;;;;;;23.30;7.28;;;;;;;;;;5012359;28;20030;-69
2023/12/10 03:57:46;;;;;;;16.73;7.07;;;;;;;;;;5013470;28;20438;-69
2023/12/10 04:00:31;;;;;;;12.23;5.60;;;;;;;;;;5012570;28;20037;-69
2023/12/10 04:03:17;;;;;;;15.38;7.95;;;;;;;;;;5013155;28;20030;-69
2023/12/10 04:06:03;;;;;;;16.67;6.53;;;;;;;;;;5013247;28;20040;-69
2023/12/10 04:08:48;;;;;;;15.20;6.72;;;;;;;;;;5016566;28;20022;-69
2023/12/10 04:11:35;;;;;;;15.93;8.05;;;;;;;;;;5017086;28;20022;-69
2023/12/10 04:14:20;;;;;;;21.52;7.47;;;;;;;;;;5017141;28;20156;-69
2023/12/10 04:17:06;;;;;;;17.00;7.82;;;;;;;;;;5022007;28;20022;-69
2023/12/10 04:19:52;;;;;;;21.95;8.00;;;;;;;;;;5015880;28;20029;-69
2023/12/10 04:22:37;;;;;;;14.02;6.75;;;;;;;;;;5016108;28;20577;-69
2023/12/10 04:25:23;;;;;;;17.08;7.00;;;;;;;;;;5014463;28;20022;-69
2023/12/10 04:28:09;;;;;;;14.20;7.90;;;;;;;;;;5021194;28;20037;-69
2023/12/10 04:30:54;;;;;;;18.10;7.00;;;;;;;;;;5018064;28;20026;-69
2023/12/10 04:33:42;;;;;;;18.50;7.45;;;;;;;;;;5016037;28;20525;-69
2023/12/10 04:36:28;;;;;;;17.38;7.30;;;;;;;;;;5001322;28;20079;-69
2023/12/10 04:39:15;;;;;;;19.92;7.28;;;;;;;;;;5014494;28;20472;-69
2023/12/10 04:42:01;;;;;;;14.38;6.57;;;;;;;;;;5018544;28;20091;-69
2023/12/10 04:44:47;;;;;;;20.75;8.40;;;;;;;;;;5034821;28;20087;-69
2023/12/10 04:47:32;;;;;;;18.45;7.88;;;;;;;;;;5034110;28;20021;-69
2023/12/10 04:50:19;;;;;;;16.73;7.20;;;;;;;;;;5035860;28;20025;-69
2023/12/10 04:53:04;;;;;;;25.13;7.55;;;;;;;;;;5034443;28;20029;-69
2023/12/10 04:55:50;;;;;;;19.42;7.53;;;;;;;;;;5034286;28;20464;-69
2023/12/10 04:58:36;;;;;;;16.45;7.40;;;;;;;;;;5036126;28;20029;-69
2023/12/10 05:01:21;;;;;;;13.77;7.60;;;;;;;;;;5034609;28;20399;-69
2023/12/10 05:04:07;;;;;;;25.50;8.75;;;;;;;;;;5035536;28;20025;-69
2023/12/10 05:06:53;;;;;;;20.85;8.35;;;;;;;;;;5035161;28;20033;-69
2023/12/10 05:09:39;;;;;;;17.25;7.72;;;;;;;;;;5033539;28;20021;-69
2023/12/10 05:12:24;;;;;;;21.05;8.05;;;;;;;;;;5034327;28;20025;-69
2023/12/10 05:15:10;;;;;;;17.17;7.28;;;;;;;;;;5035519;28;20028;-68
2023/12/10 05:17:56;;;;;;;16.75;6.75;;;;;;;;;;5033650;28;20017;-69
2023/12/10 05:20:41;;;;;;;22.30;7.28;;;;;;;;;;5019836;28;20029;-69
2023/12/10 05:23:27;;;;;;;19.27;7.30;;;;;;;;;;5033397;28;20029;-69
2023/12/10 05:26:13;;;;;;;15.65;7.13;;;;;;;;;;5020949;28;20038;-69
2023/12/10 05:28:59;;;;;;;24.40;8.52;;;;;;;;;;5014374;28;20025;-68
2023/12/10 05:31:45;;;;;;;19.48;7.43;;;;;;;;;;5014556;28;20080;-69
2023/12/10 05:34:31;;;;;;;17.75;8.15;;;;;;;;;;5000367;28;20025;-69
2023/12/10 05:37:16;;;;;;;24.60;9.00;;;;;;;;;;5014587;28;20095;-69
2023/12/10 05:40:02;;;;;;;32.75;8.43;;;;;;;;;;5022679;28;20174;-69
2023/12/10 05:42:48;;;;;;;22.98;9.70;;;;;;;;;;5014191;28;20044;-69
2023/12/10 05:45:34;;;;;;;28.40;9.05;;;;;;;;;;5012949;28;20487;-68
2023/12/10 05:48:20;;;;;;;22.58;9.48;;;;;;;;;;5028552;28;20029;-69
2023/12/10 05:51:06;;;;;;;21.67;7.95;;;;;;;;;;5011653;28;20032;-69
2023/12/10 05:53:52;;;;;;;21.85;8.40;;;;;;;;;;5033267;28;20021;-69
2023/12/10 05:56:37;;;;;;;23.98;8.90;;;;;;;;;;5019030;28;20442;-68
2023/12/10 05:59:23;;;;;;;22.42;8.15;;;;;;;;;;5021463;28;20022;-69
2023/12/10 06:02:09;;;;;;;27.10;9.30;;;;;;;;;;5027280;28;20032;-68
2023/12/10 06:04:54;;;;;;;21.52;8.82;;;;;;;;;;5027042;28;20056;-69
2023/12/10 06:07:40;;;;;;;24.30;8.82;;;;;;;;;;5032824;28;20040;-68
2023/12/10 06:10:26;;;;;;;26.02;9.65;;;;;;;;;;5033378;28;20017;-69
2023/12/10 06:13:11;;;;;;;21.75;9.10;;;;;;;;;;5032248;28;20398;-69
2023/12/10 06:15:57;;;;;;;24.77;9.98;;;;;;;;;;5033111;28;20028;-69
2023/12/10 06:18:43;;;;;;;22.70;9.63;;;;;;;;;;5032275;28;20057;-68
2023/12/10 06:21:28;;;;;;;25.67;9.23;;;;;;;;;;5031903;28;20105;-69
2023/12/10 06:24:14;;;;;;;24.90;8.45;;;;;;;;;;5032196;28;20033;-69
2023/12/10 06:27:00;;;;;;;24.65;10.25;;;;;;;;;;5031374;28;20088;-68
2023/12/10 06:29:45;;;;;;;22.92;8.75;;;;;;;;;;5031689;28;20076;-69
2023/12/10 06:32:31;;;;;;;26.35;10.10;;;;;;;;;;5024707;28;20431;-69
2023/12/10 06:35:17;;;;;;;24.25;9.75;;;;;;;;;;5025330;28;20022;-69
2023/12/10 06:38:02;;;;;;;23.25;10.10;;;;;;;;;;5012565;28;20053;-69
2023/12/10 06:40:48;;;;;;;28.60;11.20;;;;;;;;;;5013850;28;20029;-69
2023/12/10 06:43:34;;;;;;;24.45;8.60;;;;;;;;;;5025884;28;20029;-69
2023/12/10 06:46:19;;;;;;;24.92;9.90;;;;;;;;;;5012877;28;20499;-69
2023/12/10 06:49:05;;;;;;;23.38;9.32;;;;;;;;;;5002470;28;20014;-69
2023/12/10 06:51:51;;;;;;;23.70;9.20;;;;;;;;;;5032682;28;20425;-69
2023/12/10 06:54:36;;;;;;;25.73;9.20;;;;;;;;;;5031126;28;20029;-68
2023/12/10 06:57:22;;;;;;;27.77;8.73;;;;;;;;;;5033416;28;20051;-69
2023/12/10 07:00:09;;;;;;;23.80;8.10;;;;;;;;;;5017093;28;20164;-68
2023/12/10 07:02:54;;;;;;;25.00;8.98;;;;;;;;;;5012738;28;20033;-68
2023/12/10 07:05:40;;;;;;;26.33;8.73;;;;;;;;;;5012950;28;20041;-68
2023/12/10 07:08:25;;;;;;;25.73;8.75;;;;;;;;;;5012909;28;20025;-68
2023/12/10 07:11:11;;;;;;;20.42;7.68;;;;;;;;;;5022541;28;20017;-68
2023/12/10 07:13:57;;;;;;;23.17;8.65;;;;;;;;;;5017283;28;20462;-69
2023/12/10 07:16:43;;;;;;;22.63;7.18;;;;;;;;;;5020683;28;20160;-68
2023/12/10 07:19:28;;;;;;;24.08;7.97;;;;;;;;;;5011766;28;20068;-69
2023/12/10 07:22:14;;;;;;;25.80;9.10;;;;;;;;;;5017671;28;20025;-69
2023/12/10 07:25:04;;;;;;;25.67;8.80;;;;;;;;;;5011229;28;20033;-68
2023/12/10 07:27:50;;;;;;;26.38;8.52;;;;;;;;;;5008648;28;20104;-69
2023/12/10 07:30:35;;;;;;;21.17;7.95;;;;;;;;;;5032281;28;20014;-68
2023/12/10 07:33:21;;;;;;;18.38;7.50;;;;;;;;;;5031531;28;20032;-67
2023/12/10 07:36:07;;;;;;;34.42;8.40;;;;;;;;;;5015472;28;20110;-68
2023/12/10 07:38:53;;;;;;;19.98;6.93;;;;;;;;;;5031796;28;20499;-69
2023/12/10 07:41:39;;;;;;;25.02;7.53;;;;;;;;;;5023716;28;20025;-69
2023/12/10 07:44:24;;;;;;;23.33;7.10;;;;;;;;;;5028726;28;20021;-68
2023/12/10 07:47:10;;;;;;;26.35;7.78;;;;;;;;;;5034509;28;20060;-68
2023/12/10 07:49:56;;;;;;;29.70;7.22;;;;;;;;;;5034456;28;20506;-68
2023/12/10 07:52:41;;;;;;;23.98;7.57;;;;;;;;;;5034950;28;20164;-68
2023/12/10 07:55:27;;;;;;;21.25;6.43;;;;;;;;;;5027004;28;20026;-66
2023/12/10 07:58:12;;;;;;;23.52;6.35;;;;;;;;;;5016543;28;20030;-67
2023/12/10 08:00:58;;;;;;;16.77;6.63;;;;;;;;;;5017541;28;20204;-67
2023/12/10 08:03:44;;;;;;;15.98;5.80;;;;;;;;;;5036025;28;20402;-68
2023/12/10 08:06:30;;;;;;;18.73;5.88;;;;;;;;;;5032541;28;20032;-69
2023/12/10 08:09:15;;;;;;;25.30;6.60;;;;;;;;;;5017037;28;20479;-67
2023/12/10 08:12:02;;;;;;;22.95;6.38;;;;;;;;;;5016083;28;20029;-67
2023/12/10 08:14:48;;;;;;;21.85;9.80;;;;;;;;;;5032266;28;20033;-67
2023/12/10 08:17:33;;;;;;;21.88;7.13;;;;;;;;;;5022161;28;20108;-67
2023/12/10 08:20:19;;;;;;;19.92;6.72;;;;;;;;;;5032060;28;20068;-67
2023/12/10 08:23:05;;;;;;;20.10;7.28;;;;;;;;;;5019797;28;20025;-67
2023/12/10 08:25:51;;;;;;;26.60;6.55;;;;;;;;;;5015201;28;20481;-67
2023/12/10 08:28:37;;;;;;;20.05;6.30;;;;;;;;;;5024875;28;20073;-67
2023/12/10 08:31:22;;;;;;;25.65;7.45;;;;;;;;;;5016203;28;20026;-67
2023/12/10 08:34:08;;;;;;;16.52;6.63;;;;;;;;;;5019470;28;20025;-67
2023/12/10 08:36:54;;;;;;;20.50;7.68;;;;;;;;;;5035199;28;20017;-67
2023/12/10 08:39:42;;;;;;;24.10;7.05;;;;;;;;;;5033898;28;20026;-67
2023/12/10 08:42:27;;;;;;;18.45;6.45;;;;;;;;;;5021541;28;20030;-67
2023/12/10 08:45:13;;;;;;;15.95;6.63;;;;;;;;;;5035381;28;20026;-67
2023/12/10 08:47:59;;;;;;;20.85;8.02;;;;;;;;;;5013663;28;20399;-67
2023/12/10 08:50:44;;;;;;;22.60;7.88;;;;;;;;;;5025393;28;20033;-67
2023/12/10 08:53:30;;;;;;;19.83;6.35;;;;;;;;;;5033701;28;20413;-67
2023/12/10 08:56:16;;;;;;;29.17;7.30;;;;;;;;;;5027725;28;20018;-67
2023/12/10 08:59:03;;;;;;;21.30;7.38;;;;;;;;;;5016141;28;20033;-67
2023/12/10 09:01:48;;;;;;;19.77;6.88;;;;;;;;;;5002324;28;20025;-67
2023/12/10 09:04:34;;;;;;;19.65;5.68;;;;;;;;;;5035318;28;20036;-67
2023/12/10 09:07:21;;;;;;;25.25;8.10;;;;;;;;;;5032946;28;20508;-67
2023/12/10 09:10:06;;;;;;;17.35;6.63;;;;;;;;;;5020338;28;20033;-67
2023/12/10 09:12:52;;;;;;;22.50;5.88;;;;;;;;;;5034701;28;20553;-67
2023/12/10 09:15:38;;;;;;;21.40;6.78;;;;;;;;;;5033190;28;20080;-67
2023/12/10 09:18:25;;;;;;;24.35;7.43;;;;;;;;;;5020178;28;20021;-66
2023/12/10 09:21:11;;;;;;;26.55;6.43;;;;;;;;;;5030228;28;20036;-66
2023/12/10 09:23:57;;;;;;;17.42;5.82;;;;;;;;;;5033200;28;20033;-66
2023/12/10 09:26:42;;;;;;;32.20;7.10;;;;;;;;;;5022567;28;20026;-66
2023/12/10 09:29:35;;;;;;;15.27;8.02;;;;;;;;;;5013660;28;20026;-66
2023/12/10 09:32:23;;;;;;;17.77;6.03;;;;;;;;;;5007581;28;20032;-66
2023/12/10 09:35:09;;;;;;;25.30;6.78;;;;;;;;;;5018341;28;20483;-66
2023/12/10 09:37:55;;;;;;;20.50;6.53;;;;;;;;;;5034034;28;20030;-66
2023/12/10 09:40:41;;;;;;;20.25;6.20;;;;;;;;;;5032736;28;20036;-66
2023/12/10 09:43:26;;;;;;;13.95;5.82;;;;;;;;;;5032579;28;20025;-67
2023/12/10 09:46:12;;;;;;;13.10;5.88;;;;;;;;;;5030057;28;20416;-66
2023/12/10 09:49:00;;;;;;;18.10;6.90;;;;;;;;;;5014625;28;20088;-66
2023/12/10 09:51:46;;;;;;;20.67;6.93;;;;;;;;;;5004237;28;20022;-66
2023/12/10 09:54:31;;;;;;;18.90;6.28;;;;;;;;;;5014308;28;20033;-66
2023/12/10 09:57:17;;;;;;;18.00;5.68;;;;;;;;;;5013363;28;20038;-66
2023/12/10 10:00:05;;;;;;;19.08;5.97;;;;;;;;;;5014249;28;20037;-66
2023/12/10 10:02:50;;;;;;;23.58;6.30;;;;;;;;;;4998659;28;20053;-66
2023/12/10 10:05:36;;;;;;;19.15;7.18;;;;;;;;;;5029946;28;20045;-66
2023/12/10 10:08:22;;;;;;;20.17;6.22;;;;;;;;;;5028160;28;20548;-65
2023/12/10 10:11:07;;;;;;;23.35;6.57;;;;;;;;;;5015860;28;20036;-66
2023/12/10 10:13:53;;;;;;;15.63;6.47;;;;;;;;;;5022215;28;20580;-66
2023/12/10 10:16:39;;;;;;;13.75;7.15;;;;;;;;;;5018957;28;20033;-67
2023/12/10 10:19:27;;;;;;;22.98;6.38;;;;;;;;;;5034112;28;20080;-66
2023/12/10 10:22:13;;;;;;;15.50;6.18;;;;;;;;;;5032578;28;20430;-66
2023/12/10 10:25:00;;;;;;;22.45;7.70;;;;;;;;;;5033187;28;20104;-66
2023/12/10 10:27:47;;;;;;;17.58;7.68;;;;;;;;;;5018513;28;20399;-66
2023/12/10 10:30:33;;;;;;;19.02;6.60;;;;;;;;;;5013524;28;20018;-67
2023/12/10 10:33:19;;;;;;;15.02;7.07;;;;;;;;;;5022348;28;20022;-66
2023/12/10 10:36:05;;;;;;;18.52;7.05;;;;;;;;;;4998854;28;20446;-66
2023/12/10 10:38:51;;;;;;;13.40;5.57;;;;;;;;;;5013973;28;20018;-66
2023/12/10 10:41:37;;;;;;;13.10;5.18;;;;;;;;;;5003154;28;20033;-67
2023/12/10 10:44:23;;;;;;;20.65;6.05;;;;;;;;;;5007815;28;20025;-66
2023/12/10 10:47:09;;;;;;;19.88;7.47;;;;;;;;;;5031792;28;20506;-66
2023/12/10 10:49:56;;;;;;;19.08;8.57;;;;;;;;;;5031849;28;20025;-66
2023/12/10 10:52:42;;;;;;;19.63;7.03;;;;;;;;;;5008233;28;20046;-66
2023/12/10 10:55:28;;;;;;;18.38;6.25;;;;;;;;;;4998644;28;20541;-67
2023/12/10 10:58:28;;;;;;;17.35;6.45;;;;;;;;;;5010400;28;20034;-66
2023/12/10 11:01:40;;;;;;;16.05;6.07;;;;;;;;;;5000866;28;20057;-66
2023/12/10 11:04:36;;;;;;;16.63;6.50;;;;;;;;;;5032348;28;20025;-66
2023/12/10 11:07:24;;;;;;;14.25;6.63;;;;;;;;;;5032211;28;20047;-66
2023/12/10 11:10:10;;;;;;;14.30;5.75;;;;;;;;;;5030306;28;20021;-65
2023/12/10 11:12:57;;;;;;;16.27;5.15;;;;;;;;;;5012539;28;20050;-66
2023/12/10 11:15:43;;;;;;;14.13;5.80;;;;;;;;;;5016194;28;20028;-66
2023/12/10 11:18:29;;;;;;;13.77;5.82;;;;;;;;;;5029665;28;20036;-66
2023/12/10 11:21:14;;;;;;;18.80;5.43;;;;;;;;;;5029420;28;20022;-68
2023/12/10 11:24:00;;;;;;;18.27;6.70;;;;;;;;;;5012256;28;20419;-68
2023/12/10 11:26:46;;;;;;;27.88;7.18;;;;;;;;;;4999884;28;20033;-68
2023/12/10 11:29:32;;;;;;;16.45;5.78;;;;;;;;;;5012845;28;20033;-68
2023/12/10 11:32:18;;;;;;;21.40;6.78;;;;;;;;;;5015246;28;20033;-68
2023/12/10 11:35:04;;;;;;;14.60;5.70;;;;;;;;;;5013386;28;20029;-68
2023/12/10 11:37:49;;;;;;;12.80;6.30;;;;;;;;;;5014597;28;20095;-68
2023/12/10 11:40:35;;;;;;;17.70;5.85;;;;;;;;;;5003698;28;20089;-65
2023/12/10 11:43:21;;;;;;;17.90;6.28;;;;;;;;;;5030069;28;20032;-66
2023/12/10 11:46:06;;;;;;;16.80;6.53;;;;;;;;;;5030660;28;20116;-65
2023/12/10 11:48:54;;;;;;;21.00;7.53;;;;;;;;;;5029810;28;20021;-68
2023/12/10 11:51:41;;;;;;;17.73;7.50;;;;;;;;;;5029855;28;20108;-67
2023/12/10 11:54:27;;;;;;;15.85;5.65;;;;;;;;;;5012940;28;20080;-67
2023/12/10 11:57:12;;;;;;;23.02;7.25;;;;;;;;;;5012702;28;20025;-67
2023/12/10 12:00:00;;;;;;;19.70;6.78;;;;;;;;;;5005682;28;20581;-67
2023/12/10 12:02:46;;;;;;;13.50;5.55;;;;;;;;;;4997331;28;20033;-68
2023/12/10 12:05:32;;;;;;;15.60;6.03;;;;;;;;;;5013939;28;20376;-67
2023/12/10 12:08:24;;;;;;;13.35;6.63;;;;;;;;;;5030602;28;20048;-68
2023/12/10 12:11:10;;;;;;;15.55;5.88;;;;;;;;;;5014527;28;20067;-68
2023/12/10 12:13:56;;;;;;;12.07;5.72;;;;;;;;;;4998444;28;20056;-68
2023/12/10 12:16:42;;;;;;;16.48;6.30;;;;;;;;;;4998949;28;20483;-68
2023/12/10 12:19:27;;;;;;;14.52;5.32;;;;;;;;;;5016671;28;20037;-67
2023/12/10 12:22:13;;;;;;;16.90;6.13;;;;;;;;;;5010916;28;20109;-67
2023/12/10 12:24:59;;;;;;;16.05;6.05;;;;;;;;;;5011650;28;20125;-68
2023/12/10 12:27:45;;;;;;;13.25;5.45;;;;;;;;;;5014466;28;20559;-68
2023/12/10 12:30:31;;;;;;;14.20;5.82;;;;;;;;;;5029463;28;20104;-68
2023/12/10 12:33:18;;;;;;;11.75;6.15;;;;;;;;;;5033810;28;20037;-68
2023/12/10 12:36:04;;;;;;;13.90;5.00;;;;;;;;;;5028583;28;20116;-68
2023/12/10 12:38:49;;;;;;;14.85;6.13;;;;;;;;;;5020350;28;20083;-68
2023/12/10 12:41:35;;;;;;;20.80;6.57;;;;;;;;;;5024122;28;20049;-68
2023/12/10 12:44:20;;;;;;;14.27;6.47;;;;;;;;;;5016360;28;20026;-68
2023/12/10 12:47:06;;;;;;;22.85;7.55;;;;;;;;;;5028697;28;20025;-68
2023/12/10 12:49:52;;;;;;;13.25;6.30;;;;;;;;;;5035661;28;20026;-68
2023/12/10 12:52:38;;;;;;;20.67;7.43;;;;;;;;;;5024912;28;20491;-68
2023/12/10 12:55:23;;;;;;;16.05;7.72;;;;;;;;;;5014301;28;20042;-68
2023/12/10 12:58:10;;;;;;;19.80;6.20;;;;;;;;;;5053604;23;20111;-70
2023/12/10 13:00:56;;;;;;;20.63;7.65;;;;;;;;;;5033459;28;20448;-71
2023/12/10 13:03:42;;;;;;;18.00;8.02;;;;;;;;;;5033336;28;20116;-70
2023/12/10 13:06:28;;;;;;;21.63;7.68;;;;;;;;;;5034396;28;20075;-70
2023/12/10 13:09:13;;;;;;;20.42;8.02;;;;;;;;;;5034188;28;20029;-70
2023/12/10 13:11:59;;;;;;;24.08;7.22;;;;;;;;;;5019026;28;20482;-70
2023/12/10 13:14:45;;;;;;;15.90;6.35;;;;;;;;;;5019403;28;20064;-70
2023/12/10 13:17:31;;;;;;;16.58;7.20;;;;;;;;;;5004022;28;20030;-70
2023/12/10 13:20:18;;;;;;;18.23;6.75;;;;;;;;;;5007183;28;20483;-70
2023/12/10 13:23:03;;;;;;;20.00;6.45;;;;;;;;;;5001061;28;20065;-71
2023/12/10 13:25:49;;;;;;;14.43;6.25;;;;;;;;;;4994054;28;20025;-72
2023/12/10 13:28:35;;;;;;;16.35;5.40;;;;;;;;;;5000736;28;20027;-71
2023/12/10 13:31:20;;;;;;;14.02;6.03;;;;;;;;;;4997749;28;20030;-71
2023/12/10 13:34:06;;;;;;;14.60;6.93;;;;;;;;;;4999160;28;20034;-71
2023/12/10 13:36:52;;;;;;;23.70;6.50;;;;;;;;;;5002619;28;20036;-70
2023/12/10 13:39:37;;;;;;;18.60;6.30;;;;;;;;;;5005257;28;20022;-71
2023/12/10 13:42:23;;;;;;;17.65;6.90;;;;;;;;;;4999361;28;20407;-70
2023/12/10 13:45:09;;;;;;;16.75;6.78;;;;;;;;;;4981914;28;20021;-70
2023/12/10 13:47:55;;;;;;;17.35;7.57;;;;;;;;;;4998763;28;20452;-71
2023/12/10 13:50:41;;;;;;;13.20;5.13;;;;;;;;;;5002410;28;20033;-71
2023/12/10 13:53:27;;;;;;;13.82;5.50;;;;;;;;;;4991022;28;20026;-71
2023/12/10 13:56:13;;;;;;;14.20;5.47;;;;;;;;;;4996288;28;20027;-71
2023/12/10 13:58:58;;;;;;;14.25;5.65;;;;;;;;;;5002148;28;20031;-71
2023/12/10 14:01:44;;;;;;;14.65;5.53;;;;;;;;;;5014735;28;20113;-71
2023/12/10 14:04:30;;;;;;;15.90;6.28;;;;;;;;;;5007733;28;20028;-71
2023/12/10 14:07:15;;;;;;;17.70;8.07;;;;;;;;;;5033519;28;20466;-71
2023/12/10 14:10:01;;;;;;;19.67;7.78;;;;;;;;;;5017950;28;20483;-71
2023/12/10 14:12:47;;;;;;;18.55;6.65;;;;;;;;;;5033378;28;20025;-71
2023/12/10 14:15:33;;;;;;;18.00;7.45;;;;;;;;;;5032897;28;20053;-72
2023/12/10 14:18:18;;;;;;;17.65;7.65;;;;;;;;;;5032945;28;20029;-71
2023/12/10 14:21:04;;;;;;;18.27;7.68;;;;;;;;;;5007010;28;20030;-74
2023/12/10 14:23:50;;;;;;;20.63;7.60;;;;;;;;;;4999916;28;20026;-74
2023/12/10 14:26:35;;;;;;;24.08;7.70;;;;;;;;;;5025541;28;20138;-75
2023/12/10 14:29:21;;;;;;;19.65;9.05;;;;;;;;;;4999442;28;20398;-74
2023/12/10 14:32:06;;;;;;;19.00;6.78;;;;;;;;;;4996772;28;20032;-74
2023/12/10 14:34:53;;;;;;;18.65;7.32;;;;;;;;;;4997280;28;20053;-74
2023/12/10 14:37:38;;;;;;;20.25;8.38;;;;;;;;;;5013582;28;20469;-74
2023/12/10 14:40:24;;;;;;;20.42;6.55;;;;;;;;;;5012382;28;20018;-73
2023/12/10 14:43:10;;;;;;;15.77;6.88;;;;;;;;;;5031142;28;20406;-74
2023/12/10 14:45:56;;;;;;;19.83;7.43;;;;;;;;;;5032247;28;20029;-74
2023/12/10 14:48:41;;;;;;;19.30;6.82;;;;;;;;;;5003896;28;20018;-74
2023/12/10 14:51:29;;;;;;;15.40;5.85;;;;;;;;;;4985419;28;20022;-74
2023/12/10 14:54:15;;;;;;;13.77;6.25;;;;;;;;;;4984563;28;20033;-71
2023/12/10 14:57:00;;;;;;;17.33;7.10;;;;;;;;;;5012222;28;20037;-72
2023/12/10 14:59:46;;;;;;;21.40;7.65;;;;;;;;;;5033229;28;20032;-74
2023/12/10 15:02:31;;;;;;;16.17;6.35;;;;;;;;;;5031248;28;20445;-74
2023/12/10 15:05:17;;;;;;;15.55;6.25;;;;;;;;;;5019315;28;20057;-74
2023/12/10 15:08:03;;;;;;;17.65;6.38;;;;;;;;;;4991874;28;20041;-75
2023/12/10 15:10:49;;;;;;;16.67;6.32;;;;;;;;;;4997579;28;20029;-74
2023/12/10 15:13:34;;;;;;;18.52;7.53;;;;;;;;;;5011682;28;20407;-72
2023/12/10 15:16:21;;;;;;;15.85;7.10;;;;;;;;;;4998566;28;20029;-72
2023/12/10 15:19:06;;;;;;;13.32;5.57;;;;;;;;;;5015749;28;20491;-72
2023/12/10 15:21:52;;;;;;;21.05;6.82;;;;;;;;;;5001148;28;20030;-72
2023/12/10 15:24:38;;;;;;;17.27;5.88;;;;;;;;;;4993000;28;20557;-72
2023/12/10 15:27:23;;;;;;;18.73;7.07;;;;;;;;;;5004067;28;20112;-72
2023/12/10 15:30:10;;;;;;;14.93;6.30;;;;;;;;;;5031973;28;20025;-71
2023/12/10 15:32:56;;;;;;;18.08;6.63;;;;;;;;;;5032305;28;20021;-72
2023/12/10 15:35:42;;;;;;;14.82;5.90;;;;;;;;;;4999271;28;20483;-72
2023/12/10 15:38:28;;;;;;;19.50;7.50;;;;;;;;;;4983678;28;20034;-71
2023/12/10 15:41:13;;;;;;;23.52;7.32;;;;;;;;;;4993016;28;20518;-71
2023/12/10 15:43:59;;;;;;;20.40;6.82;;;;;;;;;;5000925;28;20030;-71
2023/12/10 15:46:45;;;;;;;19.48;6.63;;;;;;;;;;4992659;28;20053;-72
2023/12/10 15:49:30;;;;;;;17.17;6.55;;;;;;;;;;5008158;28;20437;-71
2023/12/10 15:52:16;;;;;;;18.58;6.35;;;;;;;;;;5031702;28;20180;-72
2023/12/10 15:55:02;;;;;;;14.35;4.97;;;;;;;;;;5017374;28;20028;-72
2023/12/10 15:57:48;;;;;;;12.35;5.53;;;;;;;;;;5010436;28;20041;-72
2023/12/10 16:00:34;;;;;;;12.82;5.45;;;;;;;;;;5009209;28;20029;-72
2023/12/10 16:03:22;;;;;;;14.95;5.07;;;;;;;;;;4996799;28;20076;-72
2023/12/10 16:06:07;;;;;;;13.07;5.05;;;;;;;;;;4968299;28;20496;-72
2023/12/10 16:08:53;;;;;;;9.02;3.85;;;;;;;;;;5032195;28;20055;-72
2023/12/10 16:11:38;;;;;;;10.25;4.22;;;;;;;;;;5035165;28;20064;-72
2023/12/10 16:14:24;;;;;;;8.35;3.22;;;;;;;;;;5033749;28;20128;-72
2023/12/10 16:17:10;;;;;;;11.15;4.65;;;;;;;;;;5005145;28;20032;-72
2023/12/10 16:19:56;;;;;;;8.00;3.70;;;;;;;;;;5014398;28;20607;-72
2023/12/10 16:22:41;;;;;;;10.40;3.85;;;;;;;;;;4999882;28;20034;-72